Roaches, Illinois
Current Conditions -  °F | °C
As of 4:15 PM on Sunday 21 Dec 2014 (Local Time) from KENL Reporting Station
Clear Clear  
Wind Chill: 37°   Ceiling: Unl
Heat Index: 40°   Visibility: 10mi
Dew Point: 29°   Wind: 5mph
Humidity: 65%   Direction: 130°SE
Pressure: 30.07"   Gusts: NA
Location:  38.3873°N, 89.0897°W
Report Text: KENL 212215Z AUTO 13004KT 10SM CLR 05/M01 A3007 RMK AO2 T00461015
Loading
Personal Weather Stations






























Interactive Weather Map New forecast layout! Learn more

10-Day Weather Forecast

Advertisements
Track Severe Weather on mobile